Wailuku, HI (96793)

3:00 PM HST on December 17, 2014 (GMT -1000)
Wailuku Heights | Change Station
CLOSE
Current Station
Personal Weather Station
Location: Wailuku, HI
Elevation: 761 ft
Nearby Weather Stations

Elev 761 ft 20.87 °N, 156.52 °W | Updated 7 seconds ago

Mostly Cloudy
Mostly Cloudy
71.2 °F
Feels Like 71.2 °F
N
9.0
Wind Variable Wind from ENE
Gusts 9.0 mph

Today
High -- | Low -- °F
--% Chance of Precip.
Yesterday
High -- | Low -- °F
Precip. -- in
6:56 AM 5:48 PM
Waning Crescent, 18% visible
Pressure 30.11 in
Visibility 10.0 miles
Clouds Few 3000 ft
Mostly Cloudy 5000 ft
Dew Point 68 °F
Humidity 91%
Rainfall 0.00 in
Snow Depth Not available.
UV 2 out of 12
Pollen Not available.
Air Quality Not available.
Flu Activity Not available.
METAR PHOG 180054Z 06016G25KT 10SM FEW030 BKN050 26/19 A3009 RMK AO2 SLP195 T02610194

More Conditions Fewer Conditions

Pressure 30.11 in
Visibility 10.0 miles
Clouds Few 3000 ft
Mostly Cloudy 5000 ft
Dew Point 68 °F
Humidity 91%
Rainfall 0.00 in
Snow Depth Not available.
UV 2 out of 12
Pollen Not available.
Air Quality Not available.
Flu Activity Not available.
METAR PHOG 180054Z 06016G25KT 10SM FEW030 BKN050 26/19 A3009 RMK AO2 SLP195 T02610194

More Conditions Fewer Conditions

10-Day Weather Forecast

Almanac

Astronomy

Dec. 17, 2014 Rise Set
Actual Time
Civil Twilight
Nautical Twilight
Astronomical Twilight
Moon
Length of Visible Light
Length of Day
Tomorrow will be .
, % of the Moon is Illuminated

Today's Extremes

State Highs State Lows

Community

WunderPhotos

Upload Photos

1,778,843 photos uploaded!

WunderBlogs® & News

Nearby

Air Quality

  Air Quality AQ Index Pollutant
Not available.

Snow Depth

Station Depth Elevation

Earthquake Activity

City Distance Mag. Time & Date
Minimum magnitude displayed is 2.5.

Coastal Water Temperatures

Place Temperature

Nearby Weather Stations